Time;durP1;ratioP1;P1;durP2;ratioP2;P2;SDS_P1;SDS_P2;PMS_P1;PMS_P2;Temp;Humidity;BMP_temperature;BMP_pressure;BME280_temperature;BME280_humidity;BME280_pressure;Samples;Min_cycle;Max_cycle;Signal;HPM_P1;HPM_P2
2023/04/22 00:02:15;;;;;;;18.63;5.70;;;12.60;52.70;;;;;;5187247;28;20191;-51
2023/04/22 00:04:46;;;;;;;9.80;5.80;;;12.60;52.70;;;;;;5184917;28;20223;-49
2023/04/22 00:07:17;;;;;;;6.80;4.87;;;12.50;52.80;;;;;;5182687;28;21216;-49
2023/04/22 00:09:48;;;;;;;6.13;4.93;;;12.40;52.90;;;;;;5175972;28;20274;-47
2023/04/22 00:12:19;;;;;;;7.30;5.47;;;12.50;53.20;;;;;;5184299;28;20540;-47
2023/04/22 00:14:50;;;;;;;9.33;5.53;;;12.40;53.20;;;;;;5182816;28;20446;-48
2023/04/22 00:17:20;;;;;;;9.03;5.60;;;12.40;53.20;;;;;;5184169;28;20299;-48
2023/04/22 00:19:51;;;;;;;9.67;5.43;;;12.30;53.20;;;;;;5185565;28;20180;-48
2023/04/22 00:22:22;;;;;;;7.60;4.90;;;12.30;53.30;;;;;;5167650;28;20172;-48
2023/04/22 00:24:52;;;;;;;10.83;5.20;;;12.30;53.20;;;;;;5178121;28;20513;-48
2023/04/22 00:27:23;;;;;;;5.77;5.17;;;12.30;53.20;;;;;;5175972;28;20308;-48
2023/04/22 00:29:54;;;;;;;5.10;4.53;;;12.30;53.40;;;;;;5181809;28;20269;-48
2023/04/22 00:32:25;;;;;;;7.60;5.27;;;12.20;53.40;;;;;;5182074;28;20873;-49
2023/04/22 00:34:56;;;;;;;6.83;5.20;;;12.20;53.40;;;;;;5174944;28;20442;-50
2023/04/22 00:37:27;;;;;;;15.83;4.63;;;12.10;53.60;;;;;;5182768;28;20502;-47
2023/04/22 00:39:58;;;;;;;5.93;5.03;;;12.00;53.60;;;;;;5174498;28;20195;-49
2023/04/22 00:42:29;;;;;;;9.53;5.97;;;12.10;53.90;;;;;;5178354;28;20435;-49
2023/04/22 00:45:00;;;;;;;8.47;4.57;;;12.10;53.90;;;;;;5183829;28;21002;-48
2023/04/22 00:47:31;;;;;;;7.27;5.27;;;12.00;53.70;;;;;;5167203;28;20996;-49
2023/04/22 00:50:02;;;;;;;5.73;4.80;;;12.00;53.90;;;;;;5182128;28;20432;-49
2023/04/22 00:52:33;;;;;;;5.87;5.37;;;12.00;54.00;;;;;;5184298;28;20523;-49
2023/04/22 00:55:04;;;;;;;10.60;5.33;;;12.00;53.80;;;;;;5183661;28;20862;-48
2023/04/22 00:57:35;;;;;;;5.37;4.87;;;12.00;53.50;;;;;;5184829;28;20263;-51
2023/04/22 01:00:08;;;;;;;8.63;5.43;;;12.10;53.60;;;;;;5177206;28;20792;-48
2023/04/22 01:02:39;;;;;;;6.10;4.90;;;12.10;53.60;;;;;;5180852;28;20435;-50
2023/04/22 01:05:10;;;;;;;7.20;5.60;;;12.00;53.50;;;;;;5182812;28;20818;-47
2023/04/22 01:07:41;;;;;;;7.57;5.73;;;12.00;53.50;;;;;;5183158;28;20283;-51
2023/04/22 01:10:12;;;;;;;4.90;4.50;;;12.00;53.90;;;;;;5175631;28;20497;-48
2023/04/22 01:12:42;;;;;;;7.30;5.80;;;12.00;54.10;;;;;;5178627;28;20180;-49
2023/04/22 01:15:13;;;;;;;5.80;4.83;;;11.90;54.20;;;;;;5179480;28;20184;-49
2023/04/22 01:17:44;;;;;;;5.23;4.73;;;11.80;54.30;;;;;;5183093;28;20208;-50
2023/04/22 01:20:15;;;;;;;8.90;5.57;;;11.80;54.30;;;;;;5177530;28;20176;-47
2023/04/22 01:22:49;;;;;;;9.83;5.70;;;11.80;55.00;;;;;;5178325;28;20443;-48
2023/04/22 01:25:20;;;;;;;9.40;5.33;;;11.90;54.60;;;;;;5183249;28;20286;-48
2023/04/22 01:27:51;;;;;;;5.20;4.70;;;11.80;54.60;;;;;;5175930;28;20554;-48
2023/04/22 01:30:22;;;;;;;6.13;4.93;;;11.80;54.80;;;;;;5179482;28;20189;-48
2023/04/22 01:32:53;;;;;;;6.93;5.57;;;11.70;54.90;;;;;;5178195;28;20827;-48
2023/04/22 01:35:24;;;;;;;4.90;4.53;;;11.80;54.90;;;;;;5178075;28;20184;-49
2023/04/22 01:37:56;;;;;;;11.00;5.07;;;11.70;54.80;;;;;;5180703;28;20506;-49
2023/04/22 01:40:28;;;;;;;16.30;6.10;;;11.70;55.00;;;;;;5178904;28;20168;-50
2023/04/22 01:43:00;;;;;;;12.47;6.27;;;11.60;55.10;;;;;;5182599;28;20431;-48
2023/04/22 01:45:30;;;;;;;6.10;5.03;;;11.60;55.10;;;;;;5171288;28;20499;-48
2023/04/22 01:48:01;;;;;;;7.23;5.90;;;11.60;55.40;;;;;;5177627;28;20502;-47
2023/04/22 01:50:32;;;;;;;6.47;4.90;;;11.60;55.70;;;;;;5193600;28;20662;-47
2023/04/22 01:53:03;;;;;;;15.73;5.30;;;11.50;55.60;;;;;;5174621;28;20248;-49
2023/04/22 01:55:34;;;;;;;10.40;5.93;;;11.50;55.90;;;;;;5176618;28;20177;-48
2023/04/22 01:58:05;;;;;;;7.47;5.73;;;11.50;55.90;;;;;;5182769;28;20201;-50
2023/04/22 02:00:36;;;;;;;9.40;5.20;;;11.50;56.10;;;;;;5180167;28;20427;-48
2023/04/22 02:03:06;;;;;;;6.20;5.60;;;11.50;56.00;;;;;;5179413;28;20176;-48
2023/04/22 02:05:37;;;;;;;8.93;6.80;;;11.50;56.30;;;;;;5184364;28;20203;-49
2023/04/22 02:08:07;;;;;;;8.57;5.60;;;11.40;56.30;;;;;;5181824;28;20220;-48
2023/04/22 02:10:38;;;;;;;16.63;6.47;;;11.40;56.40;;;;;;5180545;28;20185;-51
2023/04/22 02:13:09;;;;;;;8.03;5.93;;;11.40;56.40;;;;;;5182902;28;20212;-47
2023/04/22 02:15:40;;;;;;;7.90;5.87;;;11.40;56.60;;;;;;5183461;28;20188;-47
2023/04/22 02:18:10;;;;;;;6.20;5.70;;;11.40;56.80;;;;;;5175843;28;20196;-50
2023/04/22 02:20:41;;;;;;;20.47;6.37;;;11.40;56.90;;;;;;5179455;28;20187;-48
2023/04/22 02:23:12;;;;;;;12.33;6.97;;;11.40;56.90;;;;;;5174826;28;20660;-49
2023/04/22 02:25:50;;;;;;;13.10;6.57;;;11.40;56.80;;;;;;5181738;28;20271;-49
2023/04/22 02:28:21;;;;;;;10.70;6.90;;;11.30;56.80;;;;;;5177873;28;20286;-46
2023/04/22 02:30:52;;;;;;;8.47;6.50;;;11.30;57.00;;;;;;5177192;28;20533;-47
2023/04/22 02:33:22;;;;;;;10.37;6.57;;;11.30;57.30;;;;;;5161898;28;20242;-50
2023/04/22 02:35:53;;;;;;;5.83;5.13;;;11.20;57.60;;;;;;5182073;28;20199;-47
2023/04/22 02:38:23;;;;;;;9.73;6.40;;;11.20;57.90;;;;;;5180407;28;20204;-49
2023/04/22 02:40:54;;;;;;;8.63;6.03;;;11.10;58.10;;;;;;5179676;28;20231;-47
2023/04/22 02:43:25;;;;;;;6.53;5.93;;;11.10;58.40;;;;;;5174941;28;20181;-49
2023/04/22 02:45:55;;;;;;;11.30;5.87;;;11.00;58.90;;;;;;5181681;28;20278;-49
2023/04/22 02:48:26;;;;;;;11.90;7.00;;;11.00;59.00;;;;;;5182768;28;20220;-49
2023/04/22 02:50:57;;;;;;;12.33;5.70;;;10.90;59.50;;;;;;5181939;28;20180;-50
2023/04/22 02:53:27;;;;;;;6.40;5.80;;;10.90;60.00;;;;;;5176135;28;20185;-49
2023/04/22 02:55:58;;;;;;;7.13;5.67;;;10.80;60.00;;;;;;5179538;28;20188;-48
2023/04/22 02:58:28;;;;;;;10.73;5.70;;;10.80;60.40;;;;;;5181439;28;20295;-47
2023/04/22 03:00:59;;;;;;;10.93;5.83;;;10.70;61.00;;;;;;5177183;28;20195;-48
2023/04/22 03:03:30;;;;;;;17.30;5.43;;;10.70;61.60;;;;;;5182190;28;20189;-48
2023/04/22 03:06:01;;;;;;;17.33;6.30;;;10.60;61.50;;;;;;5183584;28;20470;-47
2023/04/22 03:08:31;;;;;;;11.23;6.23;;;10.60;61.90;;;;;;5197090;28;20200;-47
2023/04/22 03:11:03;;;;;;;13.50;7.03;;;10.60;62.20;;;;;;5179945;28;20246;-47
2023/04/22 03:13:33;;;;;;;12.10;6.53;;;10.60;62.40;;;;;;5178544;28;20177;-47
2023/04/22 03:16:04;;;;;;;9.73;5.50;;;10.60;62.80;;;;;;5176905;28;20438;-48
2023/04/22 03:18:35;;;;;;;10.20;5.90;;;10.50;62.80;;;;;;5175909;28;20219;-48
2023/04/22 03:21:06;;;;;;;11.43;6.23;;;10.50;63.00;;;;;;5179887;28;20561;-49
2023/04/22 03:23:36;;;;;;;7.17;6.10;;;10.40;63.30;;;;;;5181166;28;20243;-48
2023/04/22 03:26:07;;;;;;;9.70;6.13;;;10.50;63.80;;;;;;5179950;28;20203;-48
2023/04/22 03:28:38;;;;;;;13.03;5.57;;;10.50;63.70;;;;;;5179094;28;20203;-48
2023/04/22 03:31:08;;;;;;;11.13;5.50;;;10.50;63.80;;;;;;5179883;28;20175;-48
2023/04/22 03:33:39;;;;;;;6.77;6.13;;;10.40;64.40;;;;;;5174510;28;20196;-49
2023/04/22 03:36:10;;;;;;;7.30;5.07;;;10.40;65.20;;;;;;5171611;28;20189;-49
2023/04/22 03:38:40;;;;;;;7.90;5.90;;;10.40;65.40;;;;;;5190496;28;20298;-49
2023/04/22 03:41:11;;;;;;;14.83;6.10;;;10.40;66.70;;;;;;5176913;28;20556;-49
2023/04/22 03:43:42;;;;;;;12.13;6.23;;;10.30;67.50;;;;;;5170730;28;20238;-48
2023/04/22 03:46:13;;;;;;;6.97;6.00;;;10.20;68.60;;;;;;5178753;28;20467;-47
2023/04/22 03:48:43;;;;;;;11.00;6.17;;;10.20;69.30;;;;;;5174961;28;20605;-47
2023/04/22 03:51:14;;;;;;;7.27;5.47;;;10.10;69.80;;;;;;5171118;28;20176;-48
2023/04/22 03:53:45;;;;;;;10.03;6.73;;;10.10;71.50;;;;;;5194181;28;20229;-47
2023/04/22 03:56:15;;;;;;;8.47;5.93;;;10.00;72.30;;;;;;5177986;28;20184;-48
2023/04/22 03:58:46;;;;;;;10.93;6.33;;;10.00;73.40;;;;;;5176110;28;20590;-49
2023/04/22 04:01:16;;;;;;;10.43;6.53;;;10.10;74.40;;;;;;5168656;28;20272;-48
2023/04/22 04:03:47;;;;;;;12.30;7.00;;;9.90;76.70;;;;;;5177033;28;20550;-48
2023/04/22 04:06:18;;;;;;;13.13;6.50;;;9.90;77.40;;;;;;5174464;28;20608;-49
2023/04/22 04:08:48;;;;;;;11.10;6.97;;;9.90;78.00;;;;;;5137721;28;1081656;-49
2023/04/22 04:11:19;;;;;;;13.57;7.30;;;9.90;78.20;;;;;;5180703;28;20196;-48
2023/04/22 04:13:50;;;;;;;13.27;7.40;;;9.90;79.60;;;;;;5182108;28;20600;-48
2023/04/22 04:16:20;;;;;;;10.00;6.30;;;9.90;80.00;;;;;;5180357;28;20338;-48
2023/04/22 04:18:51;;;;;;;14.60;7.13;;;10.00;79.40;;;;;;5176094;28;20670;-48
2023/04/22 04:21:21;;;;;;;8.87;6.90;;;9.90;80.80;;;;;;5182281;28;20188;-49
2023/04/22 04:23:52;;;;;;;7.70;6.93;;;9.90;80.90;;;;;;5180559;28;20188;-50
2023/04/22 04:26:23;;;;;;;10.83;6.67;;;9.90;81.70;;;;;;5176547;28;20303;-49
2023/04/22 04:28:54;;;;;;;11.97;7.37;;;9.90;81.70;;;;;;5173141;28;20646;-51
2023/04/22 04:31:25;;;;;;;7.97;6.70;;;10.00;80.90;;;;;;5177778;28;20493;-49
2023/04/22 04:33:56;;;;;;;12.23;7.33;;;10.00;80.30;;;;;;5179649;28;20238;-50
2023/04/22 04:36:28;;;;;;;10.60;6.63;;;10.10;80.20;;;;;;5176111;28;20519;-49
2023/04/22 04:38:58;;;;;;;13.17;7.70;;;10.10;79.20;;;;;;5180275;28;20216;-49
2023/04/22 04:41:30;;;;;;;13.00;7.83;;;10.10;79.90;;;;;;5178290;28;20458;-49
2023/04/22 04:44:01;;;;;;;8.60;6.20;;;10.20;80.30;;;;;;5178678;28;20238;-49
2023/04/22 04:46:33;;;;;;;11.87;7.13;;;10.30;79.70;;;;;;5180215;28;20471;-49
2023/04/22 04:49:03;;;;;;;12.33;7.60;;;10.60;78.30;;;;;;5180165;28;20204;-49
2023/04/22 04:51:34;;;;;;;8.37;6.80;;;10.90;74.90;;;;;;5179046;28;20500;-49
2023/04/22 04:54:05;;;;;;;15.43;6.90;;;11.00;73.70;;;;;;5179270;28;20236;-50
2023/04/22 04:56:35;;;;;;;13.00;6.80;;;11.20;72.00;;;;;;5181968;28;20291;-50
2023/04/22 04:59:07;;;;;;;15.80;6.53;;;11.40;70.10;;;;;;5177481;28;20204;-49
2023/04/22 05:01:38;;;;;;;8.43;7.57;;;11.50;70.20;;;;;;5172142;28;20185;-50
2023/04/22 05:04:09;;;;;;;10.63;7.43;;;11.70;68.50;;;;;;5178656;28;20501;-50
2023/04/22 05:06:39;;;;;;;11.93;6.60;;;11.90;66.70;;;;;;5177395;28;20286;-50
2023/04/22 05:09:10;;;;;;;13.90;7.60;;;12.30;65.30;;;;;;5184712;28;20212;-50
2023/04/22 05:11:41;;;;;;;9.90;7.00;;;12.60;62.30;;;;;;5177905;28;20303;-50
2023/04/22 05:14:11;;;;;;;16.70;6.47;;;12.70;61.30;;;;;;5176889;28;20540;-49
2023/04/22 05:16:42;;;;;;;11.70;6.67;;;13.30;60.40;;;;;;5183409;28;20271;-48
2023/04/22 05:19:12;;;;;;;12.07;7.20;;;14.20;56.10;;;;;;5173199;28;20208;-49
2023/04/22 05:21:43;;;;;;;9.67;6.87;;;14.50;54.20;;;;;;5173570;28;20207;-51
2023/04/22 05:24:14;;;;;;;11.17;7.50;;;14.60;53.70;;;;;;5176015;28;20188;-51
2023/04/22 05:26:44;;;;;;;8.10;7.30;;;15.30;52.60;;;;;;5181188;28;20185;-50
2023/04/22 05:29:15;;;;;;;11.83;6.80;;;15.80;50.20;;;;;;5181121;28;20204;-49
2023/04/22 05:31:45;;;;;;;10.00;7.73;;;16.10;49.80;;;;;;5177521;28;20577;-52
2023/04/22 05:34:16;;;;;;;10.40;7.70;;;16.20;48.50;;;;;;5181404;28;20622;-51
2023/04/22 05:36:47;;;;;;;12.27;7.20;;;16.50;48.30;;;;;;5181951;28;20184;-50
2023/04/22 05:39:18;;;;;;;11.20;7.27;;;16.80;47.50;;;;;;5181104;28;20597;-49
2023/04/22 05:41:49;;;;;;;9.50;8.07;;;17.00;46.80;;;;;;5181820;28;20188;-50
2023/04/22 05:44:19;;;;;;;9.13;6.50;;;17.40;46.20;;;;;;5181541;28;20441;-51
2023/04/22 05:46:50;;;;;;;12.57;7.73;;;17.60;45.10;;;;;;5176681;28;20191;-50
2023/04/22 05:49:21;;;;;;;12.30;7.53;;;17.40;45.40;;;;;;5177550;28;21351;-50
2023/04/22 05:51:51;;;;;;;12.23;7.77;;;17.20;45.10;;;;;;5178287;28;20173;-48
2023/04/22 05:54:22;;;;;;;15.33;8.33;;;17.20;45.60;;;;;;5166383;28;20263;-51
2023/04/22 05:56:52;;;;;;;11.33;7.13;;;17.60;45.10;;;;;;5175776;28;20192;-50
2023/04/22 05:59:23;;;;;;;9.23;7.67;;;18.50;44.00;;;;;;5167255;28;20219;-50
2023/04/22 06:01:54;;;;;;;16.53;7.93;;;18.80;42.80;;;;;;5177625;28;20180;-49
2023/04/22 06:04:24;;;;;;;13.47;8.33;;;19.20;42.20;;;;;;5180020;28;20184;-49
2023/04/22 06:06:55;;;;;;;12.23;6.97;;;19.60;41.30;;;;;;5181712;28;20200;-51
2023/04/22 06:09:26;;;;;;;9.10;7.03;;;19.30;41.50;;;;;;5179650;28;20227;-51
2023/04/22 06:11:57;;;;;;;11.13;7.80;;;19.30;41.40;;;;;;5179772;28;20451;-48
2023/04/22 06:14:27;;;;;;;10.07;6.90;;;19.60;40.90;;;;;;5176234;28;20175;-49
2023/04/22 06:16:58;;;;;;;13.70;6.93;;;19.90;40.40;;;;;;5179101;28;20177;-51
2023/04/22 06:19:28;;;;;;;7.57;6.67;;;19.90;40.10;;;;;;5178991;28;20191;-50
2023/04/22 06:21:59;;;;;;;12.17;8.20;;;20.10;40.20;;;;;;5180175;28;20192;-49
2023/04/22 06:24:30;;;;;;;13.23;7.90;;;20.50;39.40;;;;;;5179758;28;20272;-51
2023/04/22 06:27:01;;;;;;;10.43;7.93;;;20.70;39.10;;;;;;5180486;28;20188;-51
2023/04/22 06:29:31;;;;;;;9.70;7.03;;;21.10;38.60;;;;;;5179495;28;21214;-48
2023/04/22 06:32:02;;;;;;;8.07;7.27;;;21.30;37.90;;;;;;5179789;28;20485;-52
2023/04/22 06:34:33;;;;;;;10.57;6.90;;;21.60;38.00;;;;;;5177097;28;20275;-49
2023/04/22 06:37:03;;;;;;;14.20;7.80;;;22.10;36.90;;;;;;5161557;28;20288;-50
2023/04/22 06:39:34;;;;;;;8.53;7.30;;;22.00;37.00;;;;;;5176445;28;20207;-49
2023/04/22 06:42:05;;;;;;;10.63;8.63;;;22.20;36.70;;;;;;5180602;28;20264;-49
2023/04/22 06:44:35;;;;;;;8.87;7.23;;;22.30;36.80;;;;;;5181155;28;20309;-51
2023/04/22 06:47:06;;;;;;;11.17;7.77;;;22.40;36.40;;;;;;5179837;28;20184;-50
2023/04/22 06:49:38;;;;;;;9.63;7.63;;;22.20;36.00;;;;;;5175116;28;21034;-50
2023/04/22 06:52:08;;;;;;;12.47;7.20;;;22.50;35.90;;;;;;5174137;28;20615;-51
2023/04/22 06:54:39;;;;;;;11.80;7.10;;;22.80;35.90;;;;;;5178238;28;20446;-49
2023/04/22 06:57:09;;;;;;;11.50;7.00;;;23.30;35.70;;;;;;5175003;28;20712;-50
2023/04/22 06:59:40;;;;;;;14.40;8.83;;;24.10;34.40;;;;;;5176537;28;20192;-50
2023/04/22 07:02:11;;;;;;;12.33;7.10;;;23.80;34.20;;;;;;5178078;28;20184;-50
2023/04/22 07:04:41;;;;;;;14.80;7.67;;;23.70;34.40;;;;;;5176336;28;20215;-49
2023/04/22 07:07:12;;;;;;;17.63;7.73;;;23.90;34.10;;;;;;5172769;28;20680;-49
2023/04/22 07:09:43;;;;;;;12.23;7.30;;;23.70;34.00;;;;;;5179474;28;20221;-48
2023/04/22 07:12:13;;;;;;;14.77;7.90;;;23.60;34.20;;;;;;5179632;28;20183;-50
2023/04/22 07:14:45;;;;;;;15.17;8.20;;;23.70;34.20;;;;;;5177896;28;20199;-49
2023/04/22 07:17:20;;;;;;;12.53;7.90;;;23.70;34.20;;;;;;5180577;28;20208;-50
2023/04/22 07:19:52;;;;;;;7.50;6.70;;;23.90;34.40;;;;;;5181628;28;21114;-49
2023/04/22 07:22:22;;;;;;;8.57;7.03;;;24.50;33.30;;;;;;5181323;28;20441;-49
2023/04/22 07:24:53;;;;;;;9.37;7.20;;;24.60;33.10;;;;;;5178723;28;20960;-49
2023/04/22 07:27:24;;;;;;;10.10;6.90;;;24.80;32.90;;;;;;5178312;28;20192;-51
2023/04/22 07:29:54;;;;;;;8.37;7.03;;;25.10;32.80;;;;;;5179344;28;20199;-50
2023/04/22 07:32:25;;;;;;;10.70;6.30;;;25.40;32.10;;;;;;5176551;28;20231;-51
2023/04/22 07:34:55;;;;;;;11.23;6.87;;;26.00;31.60;;;;;;5177593;28;20195;-51
2023/04/22 07:37:26;;;;;;;9.20;6.67;;;25.90;31.10;;;;;;5178753;28;20204;-51
2023/04/22 07:39:57;;;;;;;11.27;7.30;;;25.80;31.20;;;;;;5179761;28;20176;-48
2023/04/22 07:42:27;;;;;;;8.47;6.70;;;25.90;31.60;;;;;;5181031;28;20212;-50
2023/04/22 07:44:58;;;;;;;7.80;7.00;;;26.00;30.70;;;;;;5181302;28;20204;-51
2023/04/22 07:47:29;;;;;;;7.47;6.30;;;26.40;30.30;;;;;;5178934;28;20685;-50
2023/04/22 07:49:59;;;;;;;11.37;6.80;;;26.60;30.00;;;;;;5180784;28;20172;-50
2023/04/22 07:52:30;;;;;;;8.67;6.50;;;26.50;30.00;;;;;;5175297;28;20196;-49
2023/04/22 07:55:01;;;;;;;9.70;6.47;;;27.70;29.60;;;;;;5177209;28;20193;-52
2023/04/22 07:57:37;;;;;;;11.17;7.53;;;28.50;28.70;;;;;;5179694;28;20224;-50
2023/04/22 08:00:08;;;;;;;10.60;5.97;;;28.90;28.30;;;;;;5182261;28;20563;-51
2023/04/22 08:02:40;;;;;;;9.23;7.10;;;28.50;28.20;;;;;;5177282;28;20981;-49
2023/04/22 08:05:10;;;;;;;7.97;6.50;;;28.30;28.30;;;;;;5178305;28;20529;-49
2023/04/22 08:07:41;;;;;;;7.70;6.70;;;28.40;28.40;;;;;;5180474;28;20451;-49
2023/04/22 08:10:12;;;;;;;8.00;7.20;;;28.70;28.10;;;;;;5179296;28;20346;-49
2023/04/22 08:12:42;;;;;;;6.27;5.77;;;27.60;27.90;;;;;;5179169;28;20266;-49
2023/04/22 08:15:13;;;;;;;8.47;5.70;;;27.10;29.10;;;;;;5163910;28;20180;-49
2023/04/22 08:17:44;;;;;;;10.20;6.90;;;27.10;29.00;;;;;;5182828;28;20200;-50
2023/04/22 08:20:16;;;;;;;11.43;7.40;;;27.40;28.60;;;;;;5180012;28;20219;-51
2023/04/22 08:22:49;;;;;;;7.70;6.77;;;27.80;29.00;;;;;;5177627;28;20216;-50
2023/04/22 08:25:20;;;;;;;9.23;7.03;;;28.60;28.10;;;;;;5159611;28;21556;-51
2023/04/22 08:27:50;;;;;;;13.20;6.73;;;28.50;28.10;;;;;;5177906;28;20504;-51
2023/04/22 08:30:21;;;;;;;8.13;6.33;;;27.80;28.40;;;;;;5176856;28;20191;-50
2023/04/22 08:32:52;;;;;;;9.27;6.60;;;26.40;29.70;;;;;;5178076;28;20188;-50
2023/04/22 08:35:23;;;;;;;16.77;7.70;;;24.30;31.40;;;;;;5179356;28;20618;-51
2023/04/22 08:37:53;;;;;;;16.20;6.70;;;23.20;33.90;;;;;;5178191;28;20212;-50
2023/04/22 08:40:24;;;;;;;11.10;6.40;;;22.20;35.10;;;;;;5179395;28;20199;-50
2023/04/22 08:42:56;;;;;;;16.33;6.40;;;21.50;36.10;;;;;;5178070;28;20238;-50
2023/04/22 08:45:27;;;;;;;10.03;7.37;;;21.20;37.30;;;;;;5179749;28;20219;-51
2023/04/22 08:47:59;;;;;;;10.50;5.83;;;20.70;37.60;;;;;;5180761;28;20486;-49
2023/04/22 08:50:31;;;;;;;6.63;5.93;;;20.50;38.30;;;;;;5176159;28;20451;-52
2023/04/22 08:53:02;;;;;;;10.50;6.83;;;20.50;38.70;;;;;;5169972;28;20435;-49
2023/04/22 08:55:34;;;;;;;9.47;7.00;;;20.70;38.80;;;;;;5167389;28;20447;-50
2023/04/22 08:58:05;;;;;;;12.03;6.30;;;20.10;39.00;;;;;;5182777;28;20298;-50
2023/04/22 09:00:36;;;;;;;6.17;5.57;;;19.70;39.80;;;;;;5178181;28;20538;-50
2023/04/22 09:03:07;;;;;;;12.13;7.03;;;19.60;39.90;;;;;;5180232;28;20185;-51
2023/04/22 09:05:39;;;;;;;9.43;5.70;;;19.50;40.30;;;;;;5182336;28;20209;-51
2023/04/22 09:08:10;;;;;;;7.00;5.50;;;19.40;40.40;;;;;;5179705;28;20504;-50
2023/04/22 09:10:41;;;;;;;10.70;5.07;;;19.30;40.60;;;;;;5180916;28;20435;-50
2023/04/22 09:13:13;;;;;;;8.20;5.93;;;19.40;40.70;;;;;;5184556;28;20428;-52
2023/04/22 09:15:44;;;;;;;6.97;5.47;;;19.20;41.10;;;;;;5181884;28;20184;-50
2023/04/22 09:18:18;;;;;;;9.77;5.67;;;19.10;40.90;;;;;;5184017;28;20836;-49
2023/04/22 09:20:53;;;;;;;8.53;5.97;;;19.10;40.70;;;;;;5183739;28;20184;-50
2023/04/22 09:23:24;;;;;;;14.83;5.90;;;19.00;41.60;;;;;;5180433;28;20446;-49
2023/04/22 09:25:56;;;;;;;9.63;6.23;;;19.30;41.50;;;;;;5183082;28;20788;-49
2023/04/22 09:28:26;;;;;;;8.70;6.10;;;19.50;41.90;;;;;;5182224;28;20657;-49
2023/04/22 09:30:59;;;;;;;7.53;5.50;;;19.70;41.20;;;;;;5183608;28;20441;-49
2023/04/22 09:33:31;;;;;;;10.03;5.17;;;19.60;41.00;;;;;;5180623;28;21283;-49
2023/04/22 09:36:08;;;;;;;11.47;5.47;;;19.50;41.00;;;;;;5181698;28;20443;-48
2023/04/22 09:38:39;;;;;;;5.30;4.57;;;19.40;41.30;;;;;;5179941;28;20774;-50
2023/04/22 09:41:11;;;;;;;6.13;5.57;;;19.50;41.00;;;;;;5182533;28;20826;-51
2023/04/22 09:43:41;;;;;;;8.90;6.43;;;19.50;41.00;;;;;;5179546;28;20313;-50
2023/04/22 09:46:12;;;;;;;10.10;4.70;;;19.60;40.80;;;;;;5182218;28;20546;-52
2023/04/22 09:48:46;;;;;;;7.50;4.90;;;19.60;40.70;;;;;;5180446;28;20219;-48
2023/04/22 09:51:17;;;;;;;7.33;4.50;;;19.60;40.30;;;;;;5179734;28;20184;-50
2023/04/22 09:54:07;;;;;;;11.50;5.13;;;19.70;40.40;;;;;;5178468;28;20531;-52
2023/04/22 09:56:50;;;;;;;7.43;4.70;;;19.80;40.50;;;;;;5180740;28;20542;-50
2023/04/22 09:59:22;;;;;;;6.27;5.00;;;19.90;40.10;;;;;;5179937;28;20446;-51
2023/04/22 10:02:03;;;;;;;5.40;4.87;;;19.90;39.60;;;;;;5178355;28;20535;-49
2023/04/22 10:04:34;;;;;;;9.63;5.73;;;20.00;40.00;;;;;;5180084;28;20431;-49
2023/04/22 10:07:05;;;;;;;10.53;5.33;;;20.00;39.90;;;;;;5167027;28;20966;-49
2023/04/22 10:09:36;;;;;;;8.37;4.90;;;20.00;40.00;;;;;;5183394;28;20629;-47
2023/04/22 10:12:06;;;;;;;4.23;4.03;;;20.00;40.10;;;;;;5181063;28;20454;-50
2023/04/22 10:14:37;;;;;;;6.40;4.97;;;20.10;39.30;;;;;;5181207;28;20280;-50
2023/04/22 10:17:09;;;;;;;7.43;5.17;;;20.30;39.70;;;;;;5181592;28;20176;-49
2023/04/22 10:19:41;;;;;;;18.43;5.00;;;20.70;39.70;;;;;;5178194;28;20184;-50
2023/04/22 10:22:12;;;;;;;4.93;4.43;;;20.70;39.20;;;;;;5175855;28;20888;-48
2023/04/22 10:24:46;;;;;;;8.53;4.63;;;20.50;39.30;;;;;;5174510;28;20451;-51
2023/04/22 10:27:21;;;;;;;15.80;5.00;;;20.50;39.60;;;;;;5176109;28;20952;-48
2023/04/22 10:29:51;;;;;;;8.00;4.50;;;20.50;39.90;;;;;;5177071;28;20443;-48
2023/04/22 10:32:24;;;;;;;9.93;4.40;;;20.50;41.30;;;;;;5179215;28;20549;-50
2023/04/22 10:35:10;;;;;;;8.20;4.93;;;20.50;38.90;;;;;;5177517;28;20213;-48
2023/04/22 10:37:42;;;;;;;11.13;5.20;;;20.80;38.80;;;;;;5175772;28;20566;-50
2023/04/22 10:40:17;;;;;;;13.53;5.03;;;20.80;38.20;;;;;;5180851;28;21296;-50
2023/04/22 10:42:52;;;;;;;7.47;4.30;;;20.70;38.50;;;;;;5192424;28;20586;-49
2023/04/22 10:45:24;;;;;;;7.23;4.53;;;20.70;39.00;;;;;;5180116;28;20837;-48
2023/04/22 10:48:01;;;;;;;7.27;4.73;;;20.60;38.40;;;;;;5174072;28;20948;-49
2023/04/22 10:50:32;;;;;;;6.27;4.27;;;20.50;38.50;;;;;;5167922;28;20447;-48
2023/04/22 10:53:44;;;;;;;7.30;4.70;;;20.70;38.70;;;;;;5172613;28;20905;-49
2023/04/22 10:56:19;;;;;;;7.97;5.37;;;20.90;37.50;;;;;;5179374;28;20596;-47
2023/04/22 10:58:50;;;;;;;5.03;4.60;;;20.90;37.40;;;;;;5173154;28;20652;-49
2023/04/22 11:01:20;;;;;;;7.37;5.37;;;20.90;37.50;;;;;;5176307;28;20510;-47
2023/04/22 11:03:51;;;;;;;10.60;5.23;;;20.80;37.90;;;;;;5176676;28;20276;-48
2023/04/22 11:06:26;;;;;;;5.93;5.43;;;20.80;37.70;;;;;;5170652;28;20215;-51
2023/04/22 11:09:11;;;;;;;5.47;4.53;;;20.80;37.00;;;;;;5175749;28;21651;-49
2023/04/22 11:11:42;;;;;;;6.00;5.40;;;20.80;37.40;;;;;;5171981;28;20462;-49
2023/04/22 11:14:13;;;;;;;5.27;4.80;;;20.90;36.40;;;;;;5177910;28;20435;-48
2023/04/22 11:16:47;;;;;;;11.97;4.67;;;20.90;37.20;;;;;;5175670;28;20195;-48
2023/04/22 11:19:18;;;;;;;5.83;4.50;;;21.00;37.10;;;;;;5173780;28;20462;-48
2023/04/22 11:21:48;;;;;;;7.90;4.03;;;21.10;37.00;;;;;;5177606;28;20446;-48
2023/04/22 11:24:19;;;;;;;9.77;4.90;;;21.20;36.30;;;;;;5178554;28;20188;-48
2023/04/22 11:26:55;;;;;;;7.20;4.40;;;21.10;36.50;;;;;;5178739;28;20342;-47
2023/04/22 11:29:26;;;;;;;6.90;5.27;;;21.30;37.20;;;;;;5177310;28;20401;-49
2023/04/22 11:31:57;;;;;;;4.50;4.03;;;21.60;36.40;;;;;;5181376;28;20517;-47
2023/04/22 11:34:28;;;;;;;4.70;4.30;;;21.80;36.40;;;;;;5179766;28;20670;-48
2023/04/22 11:36:59;;;;;;;5.73;4.60;;;21.70;35.10;;;;;;5182548;28;20289;-47
2023/04/22 11:39:36;;;;;;;5.70;3.90;;;21.80;34.40;;;;;;5176536;28;20647;-50
2023/04/22 11:42:06;;;;;;;5.77;4.60;;;21.90;34.10;;;;;;5176766;28;20208;-49
2023/04/22 11:44:38;;;;;;;7.63;5.00;;;22.00;34.40;;;;;;5174396;28;20522;-52
2023/04/22 11:47:08;;;;;;;5.03;4.13;;;22.10;34.30;;;;;;5174325;28;20617;-50
2023/04/22 11:49:39;;;;;;;5.20;4.70;;;22.20;33.70;;;;;;5177787;28;20439;-49
2023/04/22 11:52:10;;;;;;;11.80;4.77;;;22.40;34.90;;;;;;5176473;28;20259;-47
2023/04/22 11:54:40;;;;;;;8.17;4.77;;;22.40;34.70;;;;;;5182156;28;20626;-51
2023/04/22 11:57:14;;;;;;;9.00;5.10;;;22.50;35.20;;;;;;5183400;28;20661;-47
2023/04/22 11:59:57;;;;;;;5.90;4.20;;;22.60;35.10;;;;;;5172823;28;20675;-46
2023/04/22 12:02:28;;;;;;;4.30;4.00;;;22.60;33.90;;;;;;5173505;28;20493;-44
2023/04/22 12:05:00;;;;;;;4.43;4.13;;;22.30;34.00;;;;;;5174783;28;20971;-47
2023/04/22 12:07:32;;;;;;;8.83;4.50;;;22.00;35.20;;;;;;5174886;28;20204;-45
2023/04/22 12:10:06;;;;;;;7.20;5.00;;;21.90;35.50;;;;;;5177544;28;20457;-45
2023/04/22 12:12:38;;;;;;;11.97;5.43;;;21.80;35.80;;;;;;5174416;28;20441;-47
2023/04/22 12:15:10;;;;;;;7.70;4.73;;;21.60;35.80;;;;;;5181111;28;20938;-45
2023/04/22 12:17:44;;;;;;;9.40;6.00;;;21.70;36.90;;;;;;5175055;28;20987;-49
2023/04/22 12:20:14;;;;;;;5.37;4.77;;;21.90;36.30;;;;;;5178899;28;20607;-47
2023/04/22 12:22:45;;;;;;;4.80;4.40;;;22.20;36.30;;;;;;5178463;28;20818;-48
2023/04/22 12:25:19;;;;;;;7.37;5.00;;;22.20;35.50;;;;;;5177916;28;20203;-48
2023/04/22 12:27:49;;;;;;;4.70;4.40;;;22.20;35.30;;;;;;5182245;28;20210;-47
2023/04/22 12:30:22;;;;;;;5.97;4.27;;;22.20;34.70;;;;;;5181521;28;20431;-47
2023/04/22 12:32:53;;;;;;;7.00;4.43;;;22.30;35.20;;;;;;5174835;28;20169;-49
2023/04/22 12:35:23;;;;;;;5.20;4.33;;;22.40;34.70;;;;;;5177237;28;20494;-49
2023/04/22 12:37:54;;;;;;;5.30;4.47;;;22.30;35.70;;;;;;5173942;28;20816;-49
2023/04/22 12:40:25;;;;;;;5.97;4.60;;;22.20;35.10;;;;;;5188874;28;20191;-50
2023/04/22 12:42:55;;;;;;;5.57;5.07;;;22.30;35.80;;;;;;5180365;28;20187;-45
2023/04/22 12:45:26;;;;;;;8.03;4.53;;;21.90;35.50;;;;;;5181000;28;20286;-48
2023/04/22 12:47:56;;;;;;;6.60;4.60;;;21.70;34.50;;;;;;5176983;28;20235;-48
2023/04/22 12:50:27;;;;;;;6.23;4.53;;;21.80;35.20;;;;;;5179945;28;20243;-48
2023/04/22 12:52:58;;;;;;;5.60;4.57;;;21.80;34.70;;;;;;5180812;28;20186;-46
2023/04/22 12:55:29;;;;;;;12.00;3.97;;;21.70;34.60;;;;;;5179518;28;20192;-47
2023/04/22 12:57:59;;;;;;;5.87;5.10;;;21.70;34.60;;;;;;5181453;28;20673;-46
2023/04/22 13:00:30;;;;;;;10.80;5.03;;;21.80;35.30;;;;;;5181434;28;20505;-45
2023/04/22 13:03:01;;;;;;;6.50;4.57;;;22.00;34.10;;;;;;5180054;28;20195;-49
2023/04/22 13:05:31;;;;;;;9.90;4.20;;;22.20;36.00;;;;;;5175189;28;20208;-46